Terminal Aerodrome Forecast
Issued by NWS

Home | Current Version | Previous Version | Text Only | Print | Product List | Glossary On
Versions: 1 2 3 4 5 6 7 8 9 10 11 12 13 14 15
000
FTUS45 KVEF 040539
TAFBIH
TAF
KBIH 040539Z 0406/0506 36008KT P6SM SCT150
     FM040800 32006KT P6SM FEW150
     FM041900 17011G19KT P6SM FEW100 SCT250
     FM050200 33008KT P6SM SCT100=

USA.gov is the U.S. government's official web portal to all federal, state and local government web resources and services.